Time;durP1;ratioP1;P1;durP2;ratioP2;P2;SDS_P1;SDS_P2;PMS_P1;PMS_P2;Temp;Humidity;BMP_temperature;BMP_pressure;BME280_temperature;BME280_humidity;BME280_pressure;Samples;Min_cycle;Max_cycle;Signal;HPM_P1;HPM_P2
2022/05/04 00:01:26;;;;;;;19.33;10.90;;;10.80;99.90;;;;;;5007950;28;20034;-78
2022/05/04 00:03:52;;;;;;;19.42;11.35;;;10.80;99.90;;;;;;5010576;28;20022;-77
2022/05/04 00:06:17;;;;;;;21.35;11.63;;;10.80;99.90;;;;;;5006821;28;20025;-76
2022/05/04 00:08:43;;;;;;;20.27;10.80;;;10.70;99.90;;;;;;5006918;28;20508;-78
2022/05/04 00:11:09;;;;;;;20.85;12.00;;;10.60;99.90;;;;;;5002536;28;20045;-77
2022/05/04 00:13:34;;;;;;;20.27;10.90;;;10.60;99.90;;;;;;5001322;28;20493;-77
2022/05/04 00:16:01;;;;;;;19.70;11.32;;;10.60;99.90;;;;;;5009185;28;20041;-76
2022/05/04 00:18:30;;;;;;;20.90;11.32;;;10.60;99.90;;;;;;5007881;28;20035;-78
2022/05/04 00:20:56;;;;;;;20.63;11.60;;;10.50;99.90;;;;;;4998041;28;20037;-74
2022/05/04 00:23:22;;;;;;;24.83;11.30;;;10.50;99.90;;;;;;5000496;28;20037;-75
2022/05/04 00:25:48;;;;;;;23.27;10.38;;;10.50;99.90;;;;;;4996151;28;20084;-77
2022/05/04 00:28:15;;;;;;;20.15;10.77;;;10.50;99.90;;;;;;4995218;28;20455;-77
2022/05/04 00:30:41;;;;;;;20.15;11.18;;;10.50;99.90;;;;;;5007146;28;20037;-76
2022/05/04 00:33:07;;;;;;;21.00;11.10;;;10.40;99.90;;;;;;4997624;28;20039;-76
2022/05/04 00:35:34;;;;;;;20.67;10.80;;;10.40;99.90;;;;;;5004076;28;20041;-77
2022/05/04 00:38:00;;;;;;;20.98;10.95;;;10.30;99.90;;;;;;5002231;28;20030;-72
2022/05/04 00:40:26;;;;;;;19.92;11.30;;;10.30;99.90;;;;;;4994652;28;20041;-77
2022/05/04 00:42:52;;;;;;;21.70;11.52;;;10.20;99.90;;;;;;5001590;28;20026;-75
2022/05/04 00:45:18;;;;;;;21.67;10.98;;;10.30;99.90;;;;;;5007004;28;20057;-77
2022/05/04 00:47:43;;;;;;;18.63;10.60;;;10.40;99.90;;;;;;5009052;28;20057;-78
2022/05/04 00:50:10;;;;;;;26.90;11.18;;;10.50;99.90;;;;;;5003127;28;20041;-77
2022/05/04 00:52:38;;;;;;;20.73;11.68;;;10.50;99.90;;;;;;4986699;28;20034;-78
2022/05/04 00:55:06;;;;;;;19.45;10.82;;;10.50;99.90;;;;;;5002026;28;20104;-78
2022/05/04 01:00:20;;;;;;;19.40;11.07;;;10.50;99.90;;;;;;5008926;28;20040;-79
2022/05/04 01:02:45;;;;;;;19.00;10.48;;;10.50;99.90;;;;;;4997472;28;20045;-77
2022/05/04 01:05:12;;;;;;;19.98;11.25;;;10.50;99.90;;;;;;4999080;28;20034;-78
2022/05/04 01:07:39;;;;;;;23.02;11.70;;;10.60;99.90;;;;;;5009831;28;20030;-76
2022/05/04 01:10:06;;;;;;;21.80;11.50;;;10.60;99.90;;;;;;5008423;28;20041;-73
2022/05/04 01:12:32;;;;;;;19.77;11.52;;;10.60;99.90;;;;;;5002947;28;20062;-77
2022/05/04 01:14:58;;;;;;;21.58;11.10;;;10.50;99.90;;;;;;5009558;28;20425;-76
2022/05/04 01:17:25;;;;;;;21.27;11.10;;;10.50;99.90;;;;;;5006550;28;20038;-77
2022/05/04 01:19:50;;;;;;;20.08;11.23;;;10.50;99.90;;;;;;5004548;28;20036;-77
2022/05/04 01:22:16;;;;;;;19.77;11.02;;;10.50;99.90;;;;;;5008823;28;20188;-77
2022/05/04 01:24:41;;;;;;;19.67;11.38;;;10.40;99.90;;;;;;4995253;28;20034;-78
2022/05/04 01:27:11;;;;;;;21.05;11.88;;;10.50;99.90;;;;;;5009110;28;20445;-75
2022/05/04 01:29:37;;;;;;;23.33;12.13;;;10.50;99.90;;;;;;4996748;28;20486;-74
2022/05/04 01:32:03;;;;;;;20.48;11.73;;;10.40;99.90;;;;;;4999314;28;20057;-74
2022/05/04 01:34:29;;;;;;;23.20;11.05;;;10.40;99.90;;;;;;5006830;28;20100;-76
2022/05/04 01:36:54;;;;;;;22.35;12.00;;;10.30;99.90;;;;;;5010566;28;20037;-77
2022/05/04 01:39:20;;;;;;;23.38;12.23;;;10.20;99.90;;;;;;5005399;28;20036;-74
2022/05/04 01:42:05;;;;;;;27.15;11.80;;;10.20;99.90;;;;;;4977597;28;20026;-78
2022/05/04 01:44:34;;;;;;;22.15;12.35;;;10.30;99.90;;;;;;4992431;28;20123;-76
2022/05/04 01:47:01;;;;;;;24.65;12.30;;;10.30;99.90;;;;;;4990374;28;20037;-73
2022/05/04 01:49:27;;;;;;;23.52;11.25;;;10.20;99.90;;;;;;4976764;28;20089;-76
2022/05/04 01:51:53;;;;;;;22.45;11.63;;;10.20;99.90;;;;;;5006504;28;20110;-75
2022/05/04 01:54:19;;;;;;;20.73;10.93;;;10.20;99.90;;;;;;4999885;28;20026;-76
2022/05/04 01:56:45;;;;;;;21.63;11.88;;;10.20;99.90;;;;;;4998203;28;20030;-78
2022/05/04 01:59:11;;;;;;;22.85;11.93;;;10.20;99.90;;;;;;5000533;28;20095;-77
2022/05/04 02:01:41;;;;;;;26.35;12.27;;;10.10;99.90;;;;;;5007623;28;20034;-78
2022/05/04 02:04:08;;;;;;;24.05;13.02;;;10.20;99.90;;;;;;5004878;28;20123;-77
2022/05/04 02:06:35;;;;;;;23.73;12.85;;;10.30;99.90;;;;;;4984607;28;20030;-77
2022/05/04 02:09:01;;;;;;;24.25;12.25;;;10.30;99.90;;;;;;5006531;28;20034;-75
2022/05/04 02:11:28;;;;;;;21.25;11.85;;;10.30;99.90;;;;;;5008294;28;20434;-74
2022/05/04 02:13:54;;;;;;;25.38;12.50;;;10.30;99.90;;;;;;5003373;28;20045;-78
2022/05/04 02:16:20;;;;;;;26.83;12.70;;;10.30;99.90;;;;;;5006398;28;20026;-76
2022/05/04 02:18:45;;;;;;;24.20;13.23;;;10.30;99.90;;;;;;5007074;28;20477;-79
2022/05/04 02:21:11;;;;;;;20.85;12.05;;;10.30;99.90;;;;;;5008609;28;20034;-76
2022/05/04 02:23:37;;;;;;;23.63;12.27;;;10.30;99.90;;;;;;5006668;28;20112;-77
2022/05/04 02:26:03;;;;;;;20.13;11.32;;;10.30;99.90;;;;;;4982529;28;20041;-75
2022/05/04 02:28:29;;;;;;;21.33;12.27;;;10.30;99.90;;;;;;5002135;28;20032;-75
2022/05/04 02:30:54;;;;;;;21.85;12.38;;;10.30;99.90;;;;;;5006375;28;20057;-78
2022/05/04 02:33:20;;;;;;;22.02;11.32;;;10.30;99.90;;;;;;5008578;28;20060;-77
2022/05/04 02:38:30;;;;;;;19.98;11.43;;;10.30;99.90;;;;;;5008364;28;20524;-76
2022/05/04 02:40:57;;;;;;;19.05;10.68;;;10.20;99.90;;;;;;4998201;28;20034;-77
2022/05/04 02:43:22;;;;;;;20.92;12.18;;;10.30;99.90;;;;;;4988990;28;20045;-75
2022/05/04 02:45:48;;;;;;;21.08;11.00;;;10.20;99.90;;;;;;4995963;28;20030;-77
2022/05/04 02:48:14;;;;;;;21.77;11.40;;;10.20;99.90;;;;;;4995009;28;20034;-78
2022/05/04 02:50:39;;;;;;;20.10;11.00;;;10.20;99.90;;;;;;5009757;28;20474;-76
2022/05/04 02:53:05;;;;;;;21.65;11.57;;;10.20;99.90;;;;;;5004909;28;20394;-74
2022/05/04 02:55:31;;;;;;;18.25;11.02;;;10.20;99.90;;;;;;5010531;28;20100;-76
2022/05/04 02:57:57;;;;;;;18.05;10.38;;;10.10;99.90;;;;;;5007457;28;20710;-76
2022/05/04 03:00:24;;;;;;;23.80;11.70;;;10.00;99.90;;;;;;5009540;28;20070;-77
2022/05/04 03:02:50;;;;;;;21.05;11.50;;;10.00;99.90;;;;;;5002758;28;20384;-75
2022/05/04 03:05:18;;;;;;;24.52;12.07;;;10.00;99.90;;;;;;5008012;28;20449;-77
2022/05/04 03:07:44;;;;;;;22.30;11.98;;;10.00;99.90;;;;;;5007589;28;20057;-78
2022/05/04 03:10:10;;;;;;;20.95;12.20;;;10.00;99.90;;;;;;5007244;28;20505;-74
2022/05/04 03:12:37;;;;;;;26.42;12.23;;;10.00;99.90;;;;;;5012874;28;20062;-75
2022/05/04 03:15:03;;;;;;;24.77;12.80;;;10.10;99.90;;;;;;4995225;28;20545;-74
2022/05/04 03:17:29;;;;;;;23.30;12.63;;;10.10;99.90;;;;;;5004048;28;20038;-74
2022/05/04 03:19:55;;;;;;;22.98;13.65;;;10.10;99.90;;;;;;5002621;28;20096;-74
2022/05/04 03:22:21;;;;;;;26.88;13.60;;;10.10;99.90;;;;;;4994470;28;20394;-76
2022/05/04 03:24:46;;;;;;;22.45;12.05;;;10.10;99.90;;;;;;5004916;28;20038;-78
2022/05/04 03:27:13;;;;;;;22.90;12.13;;;10.10;99.90;;;;;;5006409;28;20229;-76
2022/05/04 03:29:38;;;;;;;23.45;12.05;;;10.20;99.90;;;;;;5007111;28;20531;-77
2022/05/04 03:32:05;;;;;;;22.13;12.07;;;10.10;99.90;;;;;;5009708;28;20033;-76
2022/05/04 03:34:30;;;;;;;19.23;11.15;;;10.10;99.90;;;;;;5011640;28;20026;-77
2022/05/04 03:36:58;;;;;;;23.88;12.32;;;10.10;99.90;;;;;;5005206;28;20031;-76
2022/05/04 03:39:28;;;;;;;21.08;12.10;;;10.10;99.90;;;;;;5018562;28;20084;-79
2022/05/04 03:41:54;;;;;;;19.40;11.73;;;10.10;99.90;;;;;;5007826;28;20497;-78
2022/05/04 03:44:20;;;;;;;23.60;12.75;;;10.10;99.90;;;;;;4994694;28;20030;-78
2022/05/04 03:46:50;;;;;;;25.45;13.15;;;10.10;99.90;;;;;;5003913;28;20026;-77
2022/05/04 03:49:19;;;;;;;26.73;14.00;;;10.10;99.90;;;;;;4991486;28;20030;-77
2022/05/04 03:51:45;;;;;;;23.77;13.18;;;10.20;99.90;;;;;;4995244;28;20053;-77
2022/05/04 03:54:11;;;;;;;23.17;12.40;;;10.20;99.90;;;;;;4998858;28;20038;-73
2022/05/04 03:56:38;;;;;;;25.15;13.15;;;10.20;99.90;;;;;;4995935;28;20034;-76
2022/05/04 03:59:05;;;;;;;22.73;12.40;;;10.20;99.90;;;;;;5002695;28;20069;-74
2022/05/04 04:01:31;;;;;;;24.40;12.55;;;10.20;99.90;;;;;;4993803;28;20038;-74
2022/05/04 04:03:57;;;;;;;22.42;11.63;;;10.20;99.90;;;;;;4997601;28;20042;-73
2022/05/04 04:06:23;;;;;;;22.27;11.05;;;10.10;99.90;;;;;;4997075;28;20173;-76
2022/05/04 04:08:50;;;;;;;22.42;12.20;;;10.00;99.90;;;;;;5000835;28;20465;-75
2022/05/04 04:11:16;;;;;;;22.55;12.32;;;9.80;99.90;;;;;;5008844;28;20407;-76
2022/05/04 04:13:41;;;;;;;26.85;13.73;;;9.70;99.90;;;;;;5010949;28;20543;-80
2022/05/04 04:16:07;;;;;;;26.60;13.18;;;9.70;99.90;;;;;;4989683;28;20042;-72
2022/05/04 04:18:33;;;;;;;23.98;12.80;;;9.80;99.90;;;;;;5008262;28;20061;-75
2022/05/04 04:23:43;;;;;;;25.15;14.13;;;10.00;99.90;;;;;;4994975;28;20037;-75
2022/05/04 04:26:09;;;;;;;29.67;14.65;;;10.10;99.90;;;;;;4990565;28;20418;-74
2022/05/04 04:28:40;;;;;;;27.20;14.38;;;10.20;99.90;;;;;;5005683;28;20083;-72
2022/05/04 04:31:10;;;;;;;27.10;14.63;;;10.30;99.90;;;;;;5002928;28;20458;-77
2022/05/04 04:33:37;;;;;;;22.55;13.65;;;10.50;99.90;;;;;;5010375;28;20497;-74
2022/05/04 04:36:04;;;;;;;24.55;12.70;;;10.50;99.90;;;;;;5007766;28;20037;-71
2022/05/04 04:38:30;;;;;;;21.63;10.88;;;10.50;99.90;;;;;;5010265;28;20030;-73
2022/05/04 04:40:56;;;;;;;23.00;12.85;;;10.50;99.90;;;;;;5007299;28;20030;-74
2022/05/04 04:43:22;;;;;;;27.08;12.75;;;10.50;99.90;;;;;;5008639;28;20030;-74
2022/05/04 04:45:49;;;;;;;20.90;11.85;;;10.40;99.90;;;;;;5006240;28;20030;-74
2022/05/04 04:48:16;;;;;;;25.63;12.50;;;10.40;99.90;;;;;;5008184;28;20040;-73
2022/05/04 04:50:46;;;;;;;20.10;11.48;;;10.50;99.90;;;;;;5009821;28;20037;-76
2022/05/04 04:53:13;;;;;;;19.00;11.10;;;10.60;99.90;;;;;;4991735;28;20661;-72
2022/05/04 04:55:43;;;;;;;19.10;10.82;;;10.70;99.90;;;;;;4994872;28;20030;-72
2022/05/04 04:58:08;;;;;;;20.63;11.48;;;10.90;99.90;;;;;;4999949;28;20042;-74
2022/05/04 05:00:34;;;;;;;23.10;11.70;;;10.80;99.90;;;;;;5005493;28;20639;-75
2022/05/04 05:03:00;;;;;;;19.27;11.10;;;10.80;99.90;;;;;;5010522;28;20429;-73
2022/05/04 05:05:26;;;;;;;20.83;11.98;;;10.60;99.90;;;;;;4983120;28;20034;-75
2022/05/04 05:07:52;;;;;;;20.17;11.55;;;10.60;99.90;;;;;;4990082;28;20077;-75
2022/05/04 05:10:18;;;;;;;21.38;11.38;;;10.60;99.90;;;;;;4998396;28;20054;-76
2022/05/04 05:12:43;;;;;;;19.00;11.10;;;10.70;99.90;;;;;;4993497;28;20047;-73
2022/05/04 05:17:54;;;;;;;20.45;11.20;;;10.70;99.90;;;;;;5007072;28;20133;-75
2022/05/04 05:20:19;;;;;;;21.75;12.20;;;10.70;99.90;;;;;;5003904;28;20037;-71
2022/05/04 05:22:45;;;;;;;26.05;12.07;;;10.80;99.90;;;;;;4994062;28;20026;-72
2022/05/04 05:25:11;;;;;;;20.25;10.95;;;10.80;99.90;;;;;;5009923;28;20092;-73
2022/05/04 05:27:36;;;;;;;21.38;12.10;;;10.90;99.90;;;;;;5007193;28;20512;-72
2022/05/04 05:30:03;;;;;;;24.30;12.00;;;10.90;99.90;;;;;;5006047;28;20037;-71
2022/05/04 05:32:29;;;;;;;21.50;11.57;;;10.90;99.90;;;;;;4990772;28;20070;-74
2022/05/04 05:34:54;;;;;;;18.05;10.85;;;10.90;99.90;;;;;;4978632;28;20030;-74
2022/05/04 05:37:20;;;;;;;20.55;11.25;;;11.00;99.90;;;;;;4991248;28;20034;-77
2022/05/04 05:39:46;;;;;;;24.17;11.75;;;11.20;99.90;;;;;;4999798;28;20113;-77
2022/05/04 05:42:12;;;;;;;20.00;11.73;;;11.20;99.90;;;;;;4988736;28;20044;-75
2022/05/04 05:44:38;;;;;;;20.75;10.60;;;11.30;99.90;;;;;;5019756;28;20030;-78
2022/05/04 05:47:04;;;;;;;20.70;11.82;;;11.40;99.90;;;;;;4999692;28;20536;-78
2022/05/04 05:49:30;;;;;;;20.15;11.75;;;11.50;99.90;;;;;;4989226;28;20394;-77
2022/05/04 05:51:56;;;;;;;19.60;11.15;;;11.60;99.90;;;;;;4990107;28;20034;-77
2022/05/04 05:54:21;;;;;;;21.65;11.95;;;11.70;99.90;;;;;;4989210;28;20022;-77
2022/05/04 05:56:47;;;;;;;22.80;12.15;;;11.80;99.90;;;;;;5004817;28;20073;-74
2022/05/04 05:59:13;;;;;;;22.02;12.05;;;11.80;99.90;;;;;;4973051;28;20443;-77
2022/05/04 06:01:38;;;;;;;23.08;12.60;;;11.80;99.90;;;;;;4995972;28;20101;-75
2022/05/04 06:04:05;;;;;;;21.83;12.07;;;11.90;99.90;;;;;;5007860;28;20454;-74
2022/05/04 06:06:31;;;;;;;22.42;12.10;;;11.90;99.90;;;;;;4994821;28;20037;-76
2022/05/04 06:08:57;;;;;;;21.55;12.10;;;11.90;99.90;;;;;;4992756;28;20035;-77
2022/05/04 06:11:22;;;;;;;20.63;12.57;;;11.90;99.90;;;;;;4970895;28;20042;-74
2022/05/04 06:13:54;;;;;;;21.55;12.00;;;11.90;99.90;;;;;;4993972;28;20042;-75
2022/05/04 06:16:20;;;;;;;22.02;11.40;;;11.90;99.90;;;;;;4996354;28;20022;-76
2022/05/04 06:18:46;;;;;;;21.45;12.10;;;11.90;99.90;;;;;;5003127;28;20037;-75
2022/05/04 06:21:12;;;;;;;22.88;12.45;;;12.00;99.90;;;;;;5010309;28;20145;-75
2022/05/04 06:23:38;;;;;;;23.75;12.80;;;12.10;99.90;;;;;;5010444;28;20054;-75
2022/05/04 06:26:04;;;;;;;19.77;11.57;;;12.20;99.90;;;;;;5000915;28;20089;-74
2022/05/04 06:28:30;;;;;;;22.38;12.00;;;12.30;99.90;;;;;;5010099;28;20534;-75
2022/05/04 06:36:24;;;;;;;20.25;11.25;;;12.80;99.90;;;;;;5004256;28;20097;-74
2022/05/04 06:38:50;;;;;;;22.25;11.73;;;13.00;99.90;;;;;;5004837;28;20030;-75
2022/05/04 06:41:15;;;;;;;19.40;11.07;;;13.10;99.90;;;;;;5001084;28;20458;-75
2022/05/04 06:43:41;;;;;;;21.73;11.80;;;13.10;99.90;;;;;;5009631;28;20370;-73
2022/05/04 06:46:07;;;;;;;20.60;10.43;;;13.20;99.90;;;;;;5005351;28;20029;-74
2022/05/04 06:48:33;;;;;;;20.60;10.30;;;13.20;99.90;;;;;;5006310;28;20030;-78
2022/05/04 06:50:59;;;;;;;22.77;10.50;;;13.30;99.90;;;;;;5000518;28;20100;-79
2022/05/04 06:53:28;;;;;;;18.60;10.55;;;13.30;99.90;;;;;;5011750;28;20038;-75
2022/05/04 06:55:54;;;;;;;19.70;10.85;;;13.40;99.90;;;;;;4987676;28;20031;-73
2022/05/04 06:58:20;;;;;;;20.90;11.35;;;13.40;99.90;;;;;;4996309;28;20432;-73
2022/05/04 07:00:45;;;;;;;22.80;10.60;;;13.50;99.90;;;;;;5017448;28;20030;-72
2022/05/04 07:03:11;;;;;;;18.10;10.00;;;13.60;99.90;;;;;;4996216;28;20446;-72
2022/05/04 07:05:36;;;;;;;16.83;8.93;;;13.70;99.90;;;;;;4996917;28;20022;-72
2022/05/04 07:08:03;;;;;;;15.45;8.00;;;13.90;99.90;;;;;;5003996;28;20109;-72
2022/05/04 07:10:29;;;;;;;13.45;7.35;;;14.10;99.90;;;;;;4999841;28;20116;-71
2022/05/04 07:12:54;;;;;;;12.07;7.25;;;14.20;99.90;;;;;;5003263;28;20109;-71
2022/05/04 07:15:20;;;;;;;11.60;7.20;;;14.30;99.90;;;;;;5006727;28;20045;-72
2022/05/04 07:17:46;;;;;;;19.05;8.70;;;14.40;99.90;;;;;;4997958;28;20022;-73
2022/05/04 07:20:12;;;;;;;13.10;7.45;;;14.50;99.90;;;;;;4994346;28;20733;-74
2022/05/04 07:22:38;;;;;;;13.80;7.28;;;14.60;99.90;;;;;;4992954;28;20034;-75
2022/05/04 07:25:04;;;;;;;13.50;7.03;;;14.60;99.90;;;;;;5001183;28;20122;-74
2022/05/04 07:27:30;;;;;;;11.70;6.93;;;14.60;99.90;;;;;;4994585;28;20490;-74
2022/05/04 07:29:55;;;;;;;16.98;7.43;;;14.60;99.90;;;;;;5004449;28;20030;-74
2022/05/04 07:32:21;;;;;;;12.90;7.32;;;14.70;99.90;;;;;;5002649;28;20034;-72
2022/05/04 07:34:47;;;;;;;11.18;7.22;;;14.70;99.90;;;;;;4998689;28;20026;-73
2022/05/04 07:37:13;;;;;;;12.60;6.97;;;14.70;99.90;;;;;;5008474;28;20033;-73
2022/05/04 07:42:26;;;;;;;12.20;7.40;;;14.60;99.90;;;;;;5004810;28;20088;-72
2022/05/04 07:45:07;;;;;;;14.30;7.32;;;14.70;99.90;;;;;;5008827;28;20037;-72
2022/05/04 07:47:35;;;;;;;11.98;7.03;;;14.60;99.90;;;;;;5004605;28;20466;-72
2022/05/04 07:50:01;;;;;;;14.35;7.03;;;14.70;99.90;;;;;;5010037;28;20030;-76
2022/05/04 07:52:27;;;;;;;13.93;7.00;;;14.70;99.90;;;;;;4991292;28;20037;-76
2022/05/04 07:54:53;;;;;;;14.98;6.70;;;14.70;99.90;;;;;;4993789;28;20038;-73
2022/05/04 07:57:19;;;;;;;11.48;6.35;;;14.80;99.90;;;;;;5001870;28;20038;-74
2022/05/04 08:05:14;;;;;;;13.75;6.25;;;14.70;99.90;;;;;;4991935;28;20045;-75
2022/05/04 08:07:40;;;;;;;12.60;6.88;;;14.60;99.90;;;;;;4990850;28;20034;-75
2022/05/04 08:10:06;;;;;;;11.88;6.40;;;14.70;99.90;;;;;;5006473;28;20038;-72
2022/05/04 08:12:33;;;;;;;14.10;7.70;;;14.70;99.90;;;;;;4991468;28;20026;-74
2022/05/04 08:14:59;;;;;;;15.45;7.68;;;14.70;99.90;;;;;;5008736;28;20109;-72
2022/05/04 08:17:25;;;;;;;14.48;7.97;;;14.70;99.90;;;;;;5007822;28;20030;-73
2022/05/04 08:19:51;;;;;;;13.05;7.07;;;14.80;99.90;;;;;;5010742;28;20026;-73
2022/05/04 08:22:17;;;;;;;14.82;7.30;;;14.60;99.90;;;;;;5009115;28;20034;-71
2022/05/04 08:24:43;;;;;;;11.02;7.10;;;14.40;99.90;;;;;;4997881;28;20089;-74
2022/05/04 08:27:09;;;;;;;12.25;7.00;;;14.40;99.90;;;;;;5008942;28;20501;-75
2022/05/04 08:29:34;;;;;;;14.10;7.10;;;14.40;99.90;;;;;;5006049;28;20496;-72
2022/05/04 08:32:00;;;;;;;12.27;6.25;;;14.40;99.90;;;;;;4999048;28;20081;-72
2022/05/04 08:34:26;;;;;;;9.70;6.68;;;14.40;99.90;;;;;;5003258;28;20038;-73
2022/05/04 08:36:52;;;;;;;9.70;6.10;;;14.40;99.90;;;;;;4976628;28;20130;-72
2022/05/04 08:39:18;;;;;;;13.50;6.85;;;14.40;99.90;;;;;;5003183;28;20034;-70
2022/05/04 08:41:44;;;;;;;17.42;7.13;;;14.40;99.90;;;;;;4999674;28;20026;-75
2022/05/04 08:44:12;;;;;;;18.42;7.57;;;14.30;99.90;;;;;;5006804;28;20068;-73
2022/05/04 08:46:43;;;;;;;14.05;7.68;;;14.20;99.90;;;;;;4997850;28;20073;-73
2022/05/04 08:49:11;;;;;;;18.02;7.90;;;13.90;99.90;;;;;;5002297;28;20046;-71
2022/05/04 08:51:37;;;;;;;12.98;7.47;;;13.90;99.90;;;;;;4992720;28;20056;-72
2022/05/04 08:54:04;;;;;;;20.23;8.73;;;13.90;99.90;;;;;;5000839;28;20049;-71
2022/05/04 08:56:32;;;;;;;17.17;8.73;;;13.90;99.90;;;;;;5002735;28;20040;-72
2022/05/04 08:58:58;;;;;;;15.75;9.10;;;14.10;99.90;;;;;;5003630;28;20070;-72
2022/05/04 09:01:26;;;;;;;18.67;9.52;;;14.30;99.90;;;;;;5009226;28;20128;-72
2022/05/04 09:03:52;;;;;;;15.73;9.68;;;14.30;99.90;;;;;;5003550;28;20030;-73
2022/05/04 09:06:28;;;;;;;20.08;9.27;;;14.40;99.90;;;;;;5163429;27;20107;-71
2022/05/04 09:09:10;;;;;;;17.67;9.80;;;14.50;99.90;;;;;;5139136;27;20039;-71
2022/05/04 09:11:41;;;;;;;16.45;8.40;;;15.00;99.90;;;;;;5115587;28;20023;-72
2022/05/04 09:14:11;;;;;;;13.23;8.75;;;15.60;99.90;;;;;;5145753;27;20030;-73
2022/05/04 09:16:38;;;;;;;15.02;8.45;;;16.10;99.90;;;;;;5145501;27;20038;-72
2022/05/04 09:19:07;;;;;;;15.50;8.77;;;16.70;99.90;;;;;;5134011;27;20030;-71
2022/05/04 09:21:33;;;;;;;13.98;7.95;;;17.40;99.90;;;;;;5141884;27;20035;-74
2022/05/04 09:23:59;;;;;;;14.38;8.55;;;17.50;99.90;;;;;;5145291;27;20045;-72
2022/05/04 09:26:25;;;;;;;12.52;7.88;;;17.40;99.90;;;;;;5130115;27;20131;-73
2022/05/04 09:28:59;;;;;;;15.23;8.18;;;17.20;99.90;;;;;;5136803;27;20079;-73
2022/05/04 09:31:28;;;;;;;14.10;8.60;;;17.00;99.90;;;;;;5133146;27;20050;-76
2022/05/04 09:34:02;;;;;;;14.13;8.10;;;16.90;99.90;;;;;;5135914;27;20030;-75
2022/05/04 09:45:15;;;;;;;12.65;7.40;;;17.20;99.90;;;;;;5137211;27;20071;-72
2022/05/04 09:47:43;;;;;;;11.27;7.72;;;17.20;99.90;;;;;;5144492;27;20042;-72
2022/05/04 09:50:10;;;;;;;12.80;7.97;;;17.50;99.90;;;;;;5140929;27;20035;-72
2022/05/04 09:52:43;;;;;;;13.52;7.55;;;17.70;99.90;;;;;;5126713;27;20019;-71
2022/05/04 09:55:17;;;;;;;14.90;6.50;;;18.10;99.90;;;;;;5147838;27;20035;-76
2022/05/04 09:57:47;;;;;;;9.18;6.18;;;18.40;99.90;;;;;;5139281;27;20027;-75
2022/05/04 10:00:14;;;;;;;9.18;5.57;;;18.40;99.90;;;;;;5116429;27;20376;-74
2022/05/04 10:02:44;;;;;;;11.00;6.32;;;18.30;99.90;;;;;;5135415;27;20091;-74
2022/05/04 10:05:10;;;;;;;9.75;6.57;;;18.20;99.90;;;;;;5139977;27;20051;-75
2022/05/04 10:07:37;;;;;;;10.40;6.00;;;18.20;99.90;;;;;;5146406;27;20027;-74
2022/05/04 10:10:07;;;;;;;8.82;5.75;;;18.20;99.90;;;;;;5144552;27;20621;-76
2022/05/04 10:12:39;;;;;;;12.00;6.25;;;18.50;99.90;;;;;;5145251;27;20470;-74
2022/05/04 10:15:08;;;;;;;11.23;6.93;;;18.80;99.90;;;;;;5145541;27;20035;-74
2022/05/04 10:17:35;;;;;;;10.13;6.75;;;19.10;99.90;;;;;;5132661;27;20035;-75
2022/05/04 10:20:15;;;;;;;9.60;6.47;;;19.20;99.90;;;;;;5111963;27;20170;-72
2022/05/04 10:22:57;;;;;;;10.23;5.70;;;19.60;99.90;;;;;;5126775;27;20379;-72
2022/05/04 10:25:24;;;;;;;10.20;5.85;;;20.10;99.90;;;;;;5130066;27;20084;-71
2022/05/04 10:27:50;;;;;;;10.27;6.70;;;20.00;99.90;;;;;;5132243;27;20031;-73
2022/05/04 10:30:32;;;;;;;12.98;6.65;;;19.70;99.90;;;;;;5110830;27;20421;-73
2022/05/04 10:33:10;;;;;;;11.30;6.57;;;19.40;99.90;;;;;;5110699;27;20088;-74
2022/05/04 10:35:41;;;;;;;11.70;7.18;;;19.00;99.90;;;;;;5130362;27;20416;-77
2022/05/04 10:38:29;;;;;;;12.20;7.63;;;18.50;99.90;;;;;;5121331;27;20049;-72
2022/05/04 10:40:58;;;;;;;12.30;7.53;;;18.30;99.90;;;;;;5116718;27;20101;-72
2022/05/04 10:43:34;;;;;;;12.32;7.25;;;18.10;99.90;;;;;;5131001;27;20071;-78
2022/05/04 10:46:08;;;;;;;10.88;6.97;;;17.80;99.90;;;;;;5130938;27;20359;-73
2022/05/04 10:48:35;;;;;;;13.20;6.80;;;17.40;99.90;;;;;;5130954;27;20042;-73
2022/05/04 10:51:19;;;;;;;9.80;5.95;;;17.10;99.90;;;;;;5132638;27;20066;-72
2022/05/04 10:53:55;;;;;;;12.93;5.43;;;16.70;99.90;;;;;;5125134;27;20023;-75
2022/05/04 10:56:23;;;;;;;12.43;6.10;;;16.60;99.90;;;;;;5123185;27;20043;-74
2022/05/04 10:59:02;;;;;;;7.63;5.72;;;16.50;99.90;;;;;;5124816;27;20084;-75
2022/05/04 11:01:34;;;;;;;10.85;6.70;;;16.40;99.90;;;;;;5120534;27;20119;-74
2022/05/04 11:04:14;;;;;;;11.30;6.00;;;16.60;99.90;;;;;;5129476;27;20023;-74
2022/05/04 11:06:52;;;;;;;10.52;7.55;;;16.80;99.90;;;;;;5128474;27;20031;-74
2022/05/04 11:09:29;;;;;;;16.60;7.35;;;17.20;99.90;;;;;;5123682;27;20475;-73
2022/05/04 11:11:56;;;;;;;13.02;7.55;;;17.50;99.90;;;;;;5092944;27;20151;-73
2022/05/04 11:14:23;;;;;;;13.88;7.38;;;17.90;99.90;;;;;;5129917;27;20027;-75
2022/05/04 11:16:53;;;;;;;10.98;7.20;;;18.10;99.90;;;;;;5123232;27;20088;-75
2022/05/04 11:19:21;;;;;;;7.63;5.43;;;18.40;99.90;;;;;;5104060;27;20130;-74
2022/05/04 11:21:47;;;;;;;8.55;5.10;;;18.80;99.90;;;;;;5118443;27;20032;-73
2022/05/04 11:24:14;;;;;;;8.90;4.68;;;18.90;99.90;;;;;;5099239;27;20029;-72
2022/05/04 11:26:45;;;;;;;9.02;4.80;;;18.80;99.90;;;;;;5125509;27;20054;-76
2022/05/04 11:29:22;;;;;;;7.65;4.72;;;18.50;99.90;;;;;;5118866;27;20027;-72
2022/05/04 11:31:54;;;;;;;8.27;4.80;;;18.40;99.90;;;;;;5130700;27;20129;-76
2022/05/04 11:34:21;;;;;;;9.38;5.78;;;17.90;99.90;;;;;;5129930;27;20035;-75
2022/05/04 11:36:49;;;;;;;8.68;5.25;;;17.80;99.90;;;;;;5130858;27;20031;-74
2022/05/04 11:39:17;;;;;;;10.70;4.68;;;17.70;99.90;;;;;;5128699;27;20031;-74
2022/05/04 11:41:45;;;;;;;7.90;5.55;;;17.80;99.90;;;;;;5113282;27;20047;-71
2022/05/04 11:44:11;;;;;;;13.52;5.53;;;17.80;99.90;;;;;;5126087;27;20019;-71
2022/05/04 11:46:37;;;;;;;10.88;6.22;;;17.80;99.90;;;;;;5111545;27;20252;-73
2022/05/04 11:49:10;;;;;;;10.70;6.20;;;17.70;99.90;;;;;;5127063;27;20398;-72
2022/05/04 11:51:37;;;;;;;10.98;5.70;;;17.70;99.90;;;;;;5110481;28;20020;-72
2022/05/04 11:54:03;;;;;;;9.95;6.22;;;17.90;99.90;;;;;;5118738;27;20058;-73
2022/05/04 11:56:29;;;;;;;11.55;6.45;;;18.10;99.90;;;;;;5114642;27;20428;-73
2022/05/04 11:58:55;;;;;;;14.02;6.38;;;18.10;99.90;;;;;;5118241;27;20026;-73
2022/05/04 12:01:21;;;;;;;11.82;6.88;;;18.10;99.90;;;;;;5118596;27;20031;-72
2022/05/04 12:03:47;;;;;;;12.63;6.43;;;18.00;99.90;;;;;;5120056;27;20120;-75
2022/05/04 12:06:14;;;;;;;10.48;6.35;;;18.10;99.90;;;;;;5127837;27;20074;-75
2022/05/04 12:08:41;;;;;;;10.20;6.68;;;18.20;99.90;;;;;;5127665;27;20459;-77
2022/05/04 12:11:08;;;;;;;10.52;6.32;;;18.40;99.90;;;;;;5131022;27;20027;-78
2022/05/04 12:13:42;;;;;;;12.15;7.32;;;18.50;99.90;;;;;;5123650;27;20103;-70
2022/05/04 12:16:09;;;;;;;9.85;7.03;;;18.60;99.90;;;;;;5131131;27;20475;-75
2022/05/04 12:18:37;;;;;;;10.82;6.40;;;18.50;99.90;;;;;;5127755;27;20368;-74
2022/05/04 12:21:08;;;;;;;10.85;6.40;;;18.70;99.90;;;;;;5128299;27;20031;-75
2022/05/04 12:23:36;;;;;;;10.88;6.13;;;18.80;99.90;;;;;;5129130;27;20085;-73
2022/05/04 12:26:03;;;;;;;7.82;5.63;;;18.80;99.90;;;;;;5130435;27;20031;-76
2022/05/04 12:28:29;;;;;;;9.95;6.63;;;19.10;99.90;;;;;;5129179;27;20458;-74
2022/05/04 12:33:41;;;;;;;11.00;7.25;;;19.80;99.90;;;;;;5120743;27;20547;-75
2022/05/04 12:36:09;;;;;;;14.75;8.07;;;20.10;99.90;;;;;;5117636;27;20043;-75
2022/05/04 12:38:36;;;;;;;13.68;7.57;;;20.00;99.90;;;;;;5117225;27;20027;-74
2022/05/04 12:41:04;;;;;;;12.50;7.47;;;20.10;99.90;;;;;;5128904;27;20022;-74
2022/05/04 12:43:38;;;;;;;15.95;8.27;;;20.10;99.90;;;;;;5125922;27;20125;-73
2022/05/04 12:46:08;;;;;;;12.10;7.90;;;19.70;99.90;;;;;;5128383;27;20516;-75
2022/05/04 12:48:35;;;;;;;10.45;7.47;;;19.40;99.90;;;;;;5127066;27;20030;-75
2022/05/04 12:51:01;;;;;;;13.70;7.57;;;19.00;99.90;;;;;;5124719;27;20077;-75
2022/05/04 12:53:27;;;;;;;10.95;7.50;;;18.90;99.90;;;;;;5096360;28;20573;-76
2022/05/04 12:58:38;;;;;;;8.85;5.70;;;19.40;99.90;;;;;;5129354;27;20046;-72
2022/05/04 13:01:05;;;;;;;10.27;5.05;;;19.30;99.90;;;;;;5116144;27;20084;-77
2022/05/04 13:03:31;;;;;;;11.07;6.40;;;19.10;99.90;;;;;;5130562;28;20028;-75
2022/05/04 13:05:57;;;;;;;10.65;6.45;;;18.90;99.90;;;;;;5128069;28;20051;-77
2022/05/04 13:08:23;;;;;;;10.90;6.10;;;18.80;99.90;;;;;;5130198;28;20019;-79
2022/05/04 13:10:49;;;;;;;9.32;6.03;;;18.70;99.90;;;;;;5123280;28;20023;-74
2022/05/04 13:13:19;;;;;;;9.73;5.95;;;18.70;99.90;;;;;;5102894;28;20033;-74